Mansehra Weather



Mansehra's Current Weather

Temprature 20.81o clear sky

clear sky

Rain: 0 %

Min Temprature20.81o
Max Temprature20.81o
Humidity65
Wind Speed0.94 m/h
Sun Rise05:57:44
Sun Set17:59:33
Current Time: 26-Sep-2022 07:52:32
Lat/Lon: 34.3333, 73.2




Mansehra's Geo Location



Mansehra's Weather Forecast

Time Overall Temp Min Temp Max Temp Humidity Wind Speed Rain
26-Sep-2022 (Mon)
08:00:00 clear sky 20.810 20.810 20.810 65 0.94 m/h 0 %
11:00:00 clear sky 22.220 22.220 25.030 61 1.93 m/h 0 %
14:00:00 clear sky 24.060 24.060 25.690 58 2.24 m/h 0 %
17:00:00 clear sky 23.990 23.990 23.990 68 1.24 m/h 0 %
20:00:00 clear sky 19.490 19.490 19.490 80 0.97 m/h 0 %
23:00:00 clear sky 18.790 18.790 18.790 79 1.5 m/h 0 %
27-Sep-2022 (Tue)
02:00:00 clear sky 18.210 18.210 18.210 76 1.54 m/h 0 %
05:00:00 clear sky 17.780 17.780 17.780 74 1.57 m/h 0 %
08:00:00 clear sky 21.820 21.820 21.820 63 0.7 m/h 0 %
11:00:00 clear sky 25.610 25.610 25.610 55 2.06 m/h 0 %
14:00:00 clear sky 26.390 26.390 26.390 55 2.71 m/h 0 %
17:00:00 few clouds 24.400 24.400 24.400 68 1.7 m/h 0 %
20:00:00 clear sky 20.000 20.000 20.000 79 0.97 m/h 0 %
23:00:00 clear sky 19.150 19.150 19.150 80 1.61 m/h 0 %
28-Sep-2022 (Wed)
02:00:00 clear sky 18.370 18.370 18.370 79 1.92 m/h 0 %
05:00:00 clear sky 17.920 17.920 17.920 75 1.79 m/h 0 %
08:00:00 clear sky 22.040 22.040 22.040 63 1.16 m/h 0 %
11:00:00 clear sky 25.920 25.920 25.920 53 2.02 m/h 0 %
14:00:00 light rain 26.770 26.770 26.770 50 2.83 m/h 18 %
17:00:00 clear sky 24.490 24.490 24.490 64 1.83 m/h 0 %
20:00:00 clear sky 19.880 19.880 19.880 75 1.48 m/h 0 %
23:00:00 light rain 18.730 18.730 18.730 74 2.14 m/h 11 %
29-Sep-2022 (Thu)
02:00:00 light rain 17.770 17.770 17.770 71 2.22 m/h 13 %
05:00:00 light rain 17.190 17.190 17.190 64 2.4 m/h 30 %
08:00:00 clear sky 21.520 21.520 21.520 52 1.29 m/h 0 %
11:00:00 clear sky 26.270 26.270 26.270 42 1.15 m/h 0 %
14:00:00 light rain 27.000 27.000 27.000 44 2.56 m/h 10 %
17:00:00 clear sky 24.670 24.670 24.670 61 1.61 m/h 0 %
20:00:00 clear sky 20.060 20.060 20.060 67 1.33 m/h 0 %
23:00:00 clear sky 19.090 19.090 19.090 67 2.14 m/h 0 %
30-Sep-2022 (Fri)
02:00:00 clear sky 18.280 18.280 18.280 66 2.24 m/h 0 %
05:00:00 clear sky 17.800 17.800 17.800 63 2.26 m/h 0 %
08:00:00 clear sky 22.160 22.160 22.160 54 1.26 m/h 0 %
11:00:00 clear sky 26.630 26.630 26.630 45 1.5 m/h 0 %
14:00:00 light rain 27.420 27.420 27.420 45 2.47 m/h 10 %
17:00:00 clear sky 25.090 25.090 25.090 60 1.62 m/h 0 %
20:00:00 clear sky 20.540 20.540 20.540 68 1.17 m/h 0 %
23:00:00 clear sky 19.460 19.460 19.460 68 2.22 m/h 0 %
01-Oct-2022 (Sat)
02:00:00 clear sky 18.790 18.790 18.790 67 2.36 m/h 0 %
05:00:00 scattered clouds 19.410 19.410 19.410 60 2.24 m/h 0 %

Famous Cities (61)